createdAt,value
2023-05-21T00:00:22.673Z,0.00
2023-05-21T00:01:22.645Z,0.00
2023-05-21T00:02:22.738Z,0.00
2023-05-21T00:03:22.770Z,0.00
2023-05-21T00:04:22.628Z,0.00
2023-05-21T00:05:22.626Z,0.00
2023-05-21T00:06:22.629Z,0.00
2023-05-21T00:07:22.628Z,0.00
2023-05-21T00:08:22.583Z,0.00
2023-05-21T00:09:22.564Z,0.00
2023-05-21T00:10:22.613Z,0.00
2023-05-21T00:11:22.580Z,0.00
2023-05-21T00:12:22.541Z,0.00
2023-05-21T00:13:22.522Z,0.00
2023-05-21T00:14:22.515Z,0.00
2023-05-21T00:15:22.516Z,0.00
2023-05-21T00:16:22.509Z,0.00
2023-05-21T00:17:22.488Z,0.00
2023-05-21T00:18:22.471Z,0.00
2023-05-21T00:19:22.500Z,0.00
2023-05-21T00:20:22.460Z,0.00
2023-05-21T00:21:22.430Z,0.00
2023-05-21T00:22:22.417Z,0.00
2023-05-21T00:23:22.408Z,0.00
2023-05-21T00:24:22.402Z,0.00
2023-05-21T00:25:22.400Z,0.00
2023-05-21T00:26:22.391Z,0.00
2023-05-21T00:27:22.373Z,0.00
2023-05-21T00:28:22.338Z,0.00
2023-05-21T00:29:22.350Z,0.00
2023-05-21T00:30:22.331Z,0.00
2023-05-21T00:31:22.363Z,0.00
2023-05-21T00:32:22.319Z,0.00
2023-05-21T00:33:22.293Z,0.00
2023-05-21T00:34:22.324Z,0.00
2023-05-21T00:35:22.314Z,0.00
2023-05-21T00:36:22.265Z,0.00
2023-05-21T00:37:22.253Z,0.00
2023-05-21T00:38:22.243Z,0.00
2023-05-21T00:39:22.216Z,0.00
2023-05-21T00:40:22.250Z,0.00
2023-05-21T00:41:22.193Z,0.00
2023-05-21T00:42:22.200Z,0.00
2023-05-21T00:43:22.209Z,0.00
2023-05-21T00:44:22.174Z,0.00
2023-05-21T00:45:22.176Z,0.00
2023-05-21T00:46:22.228Z,0.00
2023-05-21T00:47:22.155Z,0.00
2023-05-21T00:48:22.106Z,0.00
2023-05-21T00:49:22.118Z,0.00
2023-05-21T00:50:22.123Z,0.00
2023-05-21T00:51:22.076Z,0.00
2023-05-21T00:52:22.065Z,0.00
2023-05-21T00:53:22.089Z,0.00
2023-05-21T00:54:22.061Z,0.00
2023-05-21T00:55:22.035Z,0.00
2023-05-21T00:56:22.039Z,0.00
2023-05-21T00:57:22.012Z,0.00
2023-05-21T00:58:22.007Z,0.00
2023-05-21T00:59:22.012Z,0.00
2023-05-21T01:00:22.005Z,0.00
2023-05-21T01:01:21.999Z,0.00
2023-05-21T01:02:22.025Z,0.00
2023-05-21T01:03:22.041Z,0.00
2023-05-21T01:04:21.942Z,0.00
2023-05-21T01:05:21.936Z,0.00
2023-05-21T01:06:21.921Z,0.00
2023-05-21T01:07:21.922Z,0.00
2023-05-21T01:08:21.893Z,0.00
2023-05-21T01:09:21.891Z,0.00
2023-05-21T01:10:21.872Z,0.00
2023-05-21T01:11:21.854Z,0.00
2023-05-21T01:12:21.842Z,0.00
2023-05-21T01:13:21.844Z,0.00
2023-05-21T01:14:21.814Z,0.00
2023-05-21T01:15:21.889Z,0.00
2023-05-21T01:16:21.814Z,0.00
2023-05-21T01:17:21.810Z,0.00
2023-05-21T01:18:21.883Z,0.00
2023-05-21T01:19:21.824Z,0.00
2023-05-21T01:20:21.765Z,0.00
2023-05-21T01:21:21.749Z,0.00
2023-05-21T01:22:21.746Z,0.00
2023-05-21T01:23:21.732Z,0.00
2023-05-21T01:24:21.723Z,0.00
2023-05-21T01:25:21.726Z,0.00
2023-05-21T01:26:21.697Z,0.00
2023-05-21T01:27:21.682Z,0.00
2023-05-21T01:28:21.660Z,0.00
2023-05-21T01:29:21.652Z,0.00
2023-05-21T01:30:21.660Z,0.00
2023-05-21T01:31:21.665Z,0.00
2023-05-21T01:32:21.607Z,0.00
2023-05-21T01:33:21.672Z,0.00
2023-05-21T01:34:21.590Z,0.00
2023-05-21T01:35:21.621Z,0.00
2023-05-21T01:36:21.570Z,0.00
2023-05-21T01:37:21.558Z,0.00
2023-05-21T01:38:21.570Z,0.00
2023-05-21T01:39:21.555Z,0.00
2023-05-21T01:40:21.571Z,0.00
2023-05-21T01:41:21.533Z,0.00
2023-05-21T01:42:21.514Z,0.00
2023-05-21T01:43:21.494Z,0.00
2023-05-21T01:44:21.478Z,0.00
2023-05-21T01:45:21.510Z,0.00
2023-05-21T01:46:21.556Z,0.00
2023-05-21T01:47:21.487Z,0.00
2023-05-21T01:48:21.436Z,0.00
2023-05-21T01:49:21.439Z,0.00
2023-05-21T01:50:21.448Z,0.00
2023-05-21T01:51:21.418Z,0.00
2023-05-21T01:52:21.411Z,0.00
2023-05-21T01:53:21.395Z,0.00
2023-05-21T01:54:21.388Z,0.00
2023-05-21T01:55:21.394Z,0.00
2023-05-21T01:56:21.345Z,0.00
2023-05-21T01:57:21.349Z,0.00
2023-05-21T01:58:21.331Z,0.00
2023-05-21T01:59:21.319Z,0.00
2023-05-21T02:00:21.328Z,0.00
2023-05-21T02:01:21.324Z,0.00
2023-05-21T02:02:21.299Z,0.00
2023-05-21T02:03:21.411Z,0.00
2023-05-21T02:04:21.254Z,0.00
2023-05-21T02:05:21.254Z,0.00
2023-05-21T02:06:21.249Z,0.00
2023-05-21T02:07:21.227Z,0.00
2023-05-21T02:08:21.242Z,0.00
2023-05-21T02:09:21.201Z,0.00
2023-05-21T02:10:21.190Z,0.00
2023-05-21T02:11:21.206Z,0.00
2023-05-21T02:12:21.186Z,0.00
2023-05-21T02:13:23.004Z,0.00
2023-05-21T02:14:21.160Z,0.00
2023-05-21T02:15:21.187Z,0.00
2023-05-21T02:16:21.203Z,0.00
2023-05-21T02:17:21.113Z,0.00
2023-05-21T02:18:21.107Z,0.00
2023-05-21T02:19:21.163Z,0.00
2023-05-21T02:20:21.088Z,0.00
2023-05-21T02:21:21.099Z,0.00
2023-05-21T02:22:21.059Z,0.00
2023-05-21T02:23:21.061Z,0.00
2023-05-21T02:24:21.051Z,0.00
2023-05-21T02:25:21.043Z,0.00
2023-05-21T02:26:21.046Z,0.00
2023-05-21T02:27:21.003Z,0.00
2023-05-21T02:28:20.988Z,0.00
2023-05-21T02:29:20.981Z,0.00
2023-05-21T02:30:21.123Z,0.00
2023-05-21T02:31:20.977Z,0.00
2023-05-21T02:32:21.051Z,0.00
2023-05-21T02:33:20.936Z,0.00
2023-05-21T02:34:21.074Z,0.00
2023-05-21T02:35:20.932Z,0.00
2023-05-21T02:36:20.910Z,0.00
2023-05-21T02:37:20.923Z,0.00
2023-05-21T02:38:20.888Z,0.00
2023-05-21T02:39:20.884Z,0.00
2023-05-21T02:40:20.870Z,0.00
2023-05-21T02:41:20.845Z,0.00
2023-05-21T02:42:20.849Z,0.00
2023-05-21T02:43:20.845Z,0.00
2023-05-21T02:44:20.821Z,0.00
2023-05-21T02:45:20.813Z,0.00
2023-05-21T02:46:20.834Z,0.00
2023-05-21T02:47:20.793Z,0.00
2023-05-21T02:48:20.771Z,0.00
2023-05-21T02:49:20.778Z,0.00
2023-05-21T02:50:20.736Z,0.00
2023-05-21T02:51:20.770Z,0.00
2023-05-21T02:52:20.742Z,0.00
2023-05-21T02:53:20.726Z,0.00
2023-05-21T02:54:20.702Z,0.00
2023-05-21T02:55:20.694Z,0.00
2023-05-21T02:56:20.670Z,0.00
2023-05-21T02:57:20.693Z,0.00
2023-05-21T02:58:20.687Z,0.00
2023-05-21T02:59:20.653Z,0.00
2023-05-21T03:00:20.628Z,0.00
2023-05-21T03:01:20.674Z,0.00
2023-05-21T03:02:20.699Z,0.00
2023-05-21T03:03:20.817Z,0.00
2023-05-21T03:04:20.578Z,0.00
2023-05-21T03:05:20.573Z,0.00
2023-05-21T03:06:20.567Z,0.00
2023-05-21T03:07:20.596Z,0.00
2023-05-21T03:08:20.546Z,0.00
2023-05-21T03:09:20.524Z,0.00
2023-05-21T03:10:20.516Z,0.00
2023-05-21T03:11:20.504Z,0.00
2023-05-21T03:12:20.515Z,0.00
2023-05-21T03:13:20.528Z,0.00
2023-05-21T03:14:20.475Z,0.00
2023-05-21T03:15:20.474Z,0.00
2023-05-21T03:16:20.511Z,0.00
2023-05-21T03:17:20.442Z,0.00
2023-05-21T03:18:20.442Z,0.00
2023-05-21T03:19:20.507Z,0.00
2023-05-21T03:20:20.403Z,0.00
2023-05-21T03:21:20.387Z,0.00
2023-05-21T03:22:20.405Z,0.00
2023-05-21T03:23:20.413Z,0.00
2023-05-21T03:24:20.355Z,0.00
2023-05-21T03:25:20.345Z,0.00
2023-05-21T03:26:20.329Z,0.00
2023-05-21T03:27:20.341Z,0.00
2023-05-21T03:28:20.309Z,0.00
2023-05-21T03:29:20.301Z,0.00
2023-05-21T03:30:20.316Z,0.00
2023-05-21T03:31:20.326Z,0.00
2023-05-21T03:32:20.396Z,0.00
2023-05-21T03:33:20.269Z,0.00
2023-05-21T03:34:20.256Z,0.00
2023-05-21T03:35:20.245Z,0.00
2023-05-21T03:36:20.224Z,0.00
2023-05-21T03:37:20.237Z,0.00
2023-05-21T03:38:20.224Z,0.00
2023-05-21T03:39:20.219Z,0.00
2023-05-21T03:40:20.170Z,0.00
2023-05-21T03:41:20.180Z,0.00
2023-05-21T03:42:20.188Z,0.00
2023-05-21T03:43:20.162Z,0.00
2023-05-21T03:44:20.148Z,0.00
2023-05-21T03:45:20.120Z,0.00
2023-05-21T03:46:20.137Z,0.00
2023-05-21T03:47:20.169Z,0.00
2023-05-21T03:48:20.104Z,0.00
2023-05-21T03:49:20.076Z,0.00
2023-05-21T03:50:20.073Z,0.00
2023-05-21T03:51:20.056Z,0.00
2023-05-21T03:52:20.080Z,0.00
2023-05-21T03:53:20.041Z,0.00
2023-05-21T03:54:20.017Z,0.00
2023-05-21T03:55:20.034Z,0.00
2023-05-21T03:56:20.006Z,0.00
2023-05-21T03:57:20.001Z,0.00
2023-05-21T03:58:20.260Z,0.00
2023-05-21T03:59:19.961Z,0.00
2023-05-21T04:00:19.946Z,0.00
2023-05-21T04:01:19.980Z,0.00
2023-05-21T04:02:20.052Z,0.00
2023-05-21T04:03:20.097Z,0.00
2023-05-21T04:04:20.003Z,0.00
2023-05-21T04:05:19.908Z,0.00
2023-05-21T04:06:19.893Z,0.00
2023-05-21T04:07:19.888Z,0.00
2023-05-21T04:08:19.874Z,0.00
2023-05-21T04:09:19.852Z,0.00
2023-05-21T04:10:19.841Z,0.00
2023-05-21T04:11:19.872Z,0.00
2023-05-21T04:12:19.862Z,5.62
2023-05-21T04:13:19.803Z,5.62
2023-05-21T04:14:19.800Z,5.62
2023-05-21T04:15:19.797Z,5.62
2023-05-21T04:16:19.811Z,5.62
2023-05-21T04:17:19.774Z,5.62
2023-05-21T04:18:19.772Z,5.62
2023-05-21T04:19:19.778Z,5.62
2023-05-21T04:20:19.742Z,5.62
2023-05-21T04:21:19.734Z,5.62
2023-05-21T04:22:19.702Z,5.62
2023-05-21T04:23:19.741Z,5.62
2023-05-21T04:24:19.692Z,5.62
2023-05-21T04:25:19.691Z,5.62
2023-05-21T04:26:19.676Z,5.62
2023-05-21T04:27:19.681Z,5.62
2023-05-21T04:28:19.692Z,5.62
2023-05-21T04:29:19.655Z,5.62
2023-05-21T04:30:19.630Z,5.62
2023-05-21T04:31:19.649Z,5.62
2023-05-21T04:32:19.604Z,5.62
2023-05-21T04:33:19.580Z,5.62
2023-05-21T04:34:19.584Z,5.62
2023-05-21T04:35:19.575Z,5.62
2023-05-21T04:36:19.562Z,5.62
2023-05-21T04:37:19.529Z,11.25
2023-05-21T04:38:19.564Z,11.25
2023-05-21T04:39:19.520Z,11.25
2023-05-21T04:40:19.514Z,11.25
2023-05-21T04:41:19.538Z,11.25
2023-05-21T04:42:19.484Z,11.25
2023-05-21T04:43:19.529Z,11.25
2023-05-21T04:44:19.488Z,11.25
2023-05-21T04:45:19.456Z,11.25
2023-05-21T04:46:19.459Z,11.25
2023-05-21T04:47:19.417Z,11.25
2023-05-21T04:48:19.436Z,11.25
2023-05-21T04:49:19.408Z,11.25
2023-05-21T04:50:19.402Z,16.88
2023-05-21T04:51:19.386Z,16.88
2023-05-21T04:52:19.370Z,16.88
2023-05-21T04:53:19.384Z,16.88
2023-05-21T04:54:19.356Z,16.88
2023-05-21T04:55:19.352Z,16.88
2023-05-21T04:56:19.349Z,16.88
2023-05-21T04:57:19.303Z,16.88
2023-05-21T04:58:19.383Z,16.88
2023-05-21T04:59:19.319Z,16.88
2023-05-21T05:00:19.276Z,16.88
2023-05-21T05:01:19.351Z,16.88
2023-05-21T05:02:19.258Z,16.88
2023-05-21T05:03:19.331Z,16.88
2023-05-21T05:04:19.229Z,16.88
2023-05-21T05:05:19.218Z,16.88
2023-05-21T05:06:19.210Z,16.88
2023-05-21T05:07:19.198Z,22.50
2023-05-21T05:08:19.198Z,22.50
2023-05-21T05:09:19.170Z,22.50
2023-05-21T05:10:19.163Z,22.50
2023-05-21T05:11:19.148Z,22.50
2023-05-21T05:12:19.144Z,22.50
2023-05-21T05:13:19.141Z,22.50
2023-05-21T05:14:19.136Z,22.50
2023-05-21T05:15:19.127Z,28.12
2023-05-21T05:16:19.135Z,28.12
2023-05-21T05:17:19.095Z,28.12
2023-05-21T05:18:19.071Z,28.12
2023-05-21T05:19:19.207Z,28.12
2023-05-21T05:20:19.065Z,28.12
2023-05-21T05:21:19.051Z,28.12
2023-05-21T05:22:19.042Z,28.12
2023-05-21T05:23:19.010Z,28.12
2023-05-21T05:24:19.021Z,28.12
2023-05-21T05:25:18.989Z,28.12
2023-05-21T05:26:18.984Z,28.12
2023-05-21T05:27:18.970Z,28.12
2023-05-21T05:28:18.980Z,28.12
2023-05-21T05:29:18.976Z,28.12
2023-05-21T05:30:18.936Z,28.12
2023-05-21T05:31:19.128Z,28.12
2023-05-21T05:32:18.963Z,28.12
2023-05-21T05:33:18.904Z,28.12
2023-05-21T05:34:18.922Z,28.12
2023-05-21T05:35:18.877Z,28.12
2023-05-21T05:36:18.884Z,28.12
2023-05-21T05:37:18.855Z,28.12
2023-05-21T05:38:18.862Z,28.12
2023-05-21T05:39:18.870Z,28.12
2023-05-21T05:40:18.827Z,28.12
2023-05-21T05:41:18.818Z,28.12
2023-05-21T05:42:18.798Z,28.12
2023-05-21T05:43:18.789Z,28.12
2023-05-21T05:44:18.830Z,28.12
2023-05-21T05:45:18.769Z,33.75
2023-05-21T05:46:18.800Z,33.75
2023-05-21T05:47:18.787Z,33.75
2023-05-21T05:48:18.737Z,33.75
2023-05-21T05:49:18.745Z,33.75
2023-05-21T05:50:18.724Z,39.38
2023-05-21T05:51:18.712Z,39.38
2023-05-21T05:52:18.693Z,39.38
2023-05-21T05:53:18.673Z,39.38
2023-05-21T05:54:18.711Z,45.00
2023-05-21T05:55:18.657Z,45.00
2023-05-21T05:56:18.658Z,45.00
2023-05-21T05:57:18.629Z,50.62
2023-05-21T05:58:18.624Z,50.62
2023-05-21T05:59:18.642Z,50.62
2023-05-21T06:00:18.619Z,56.25
2023-05-21T06:01:18.595Z,56.25
2023-05-21T06:02:18.614Z,56.25
2023-05-21T06:03:18.676Z,50.62
2023-05-21T06:04:18.581Z,50.62
2023-05-21T06:05:18.608Z,50.62
2023-05-21T06:06:18.576Z,50.62
2023-05-21T06:07:18.514Z,56.25
2023-05-21T06:08:18.522Z,50.62
2023-05-21T06:09:18.521Z,50.62
2023-05-21T06:10:18.501Z,50.62
2023-05-21T06:11:18.483Z,50.62
2023-05-21T06:12:18.472Z,50.62
2023-05-21T06:13:18.453Z,50.62
2023-05-21T06:14:18.457Z,50.62
2023-05-21T06:15:18.446Z,50.62
2023-05-21T06:16:18.461Z,50.62
2023-05-21T06:17:18.424Z,50.62
2023-05-21T06:18:18.404Z,50.62
2023-05-21T06:19:19.041Z,56.25
2023-05-21T06:20:18.433Z,56.25
2023-05-21T06:21:18.378Z,56.25
2023-05-21T06:22:18.352Z,61.88
2023-05-21T06:23:18.339Z,61.88
2023-05-21T06:24:18.347Z,61.88
2023-05-21T06:25:18.359Z,67.50
2023-05-21T06:26:18.321Z,67.50
2023-05-21T06:27:18.311Z,73.12
2023-05-21T06:28:18.294Z,73.12
2023-05-21T06:29:18.290Z,73.12
2023-05-21T06:30:18.331Z,73.12
2023-05-21T06:31:18.264Z,73.12
2023-05-21T06:32:18.268Z,78.75
2023-05-21T06:33:18.368Z,84.38
2023-05-21T06:34:18.222Z,84.38
2023-05-21T06:35:18.277Z,90.00
2023-05-21T06:36:18.211Z,95.62
2023-05-21T06:37:18.182Z,101.25
2023-05-21T06:38:18.189Z,106.88
2023-05-21T06:39:18.169Z,112.50
2023-05-21T06:40:18.181Z,112.50
2023-05-21T06:41:18.141Z,118.12
2023-05-21T06:42:18.134Z,118.12
2023-05-21T06:43:18.111Z,123.75
2023-05-21T06:44:18.136Z,123.75
2023-05-21T06:45:18.160Z,123.75
2023-05-21T06:46:18.119Z,129.38
2023-05-21T06:47:18.095Z,129.38
2023-05-21T06:48:18.111Z,135.00
2023-05-21T06:49:18.151Z,140.62
2023-05-21T06:50:18.111Z,140.62
2023-05-21T06:51:18.117Z,146.25
2023-05-21T06:52:18.015Z,146.25
2023-05-21T06:53:18.014Z,151.88
2023-05-21T06:54:17.995Z,157.50
2023-05-21T06:55:18.005Z,168.75
2023-05-21T06:56:17.979Z,185.62
2023-05-21T06:57:17.962Z,225.00
2023-05-21T06:58:17.960Z,303.75
2023-05-21T06:59:17.933Z,360.00
2023-05-21T07:00:17.940Z,376.88
2023-05-21T07:01:17.953Z,354.38
2023-05-21T07:02:17.950Z,337.50
2023-05-21T07:03:18.097Z,303.75
2023-05-21T07:04:17.896Z,275.62
2023-05-21T07:05:17.904Z,286.88
2023-05-21T07:06:17.872Z,241.88
2023-05-21T07:07:17.867Z,241.88
2023-05-21T07:08:17.839Z,191.25
2023-05-21T07:09:17.823Z,213.75
2023-05-21T07:10:17.862Z,191.25
2023-05-21T07:11:17.808Z,270.00
2023-05-21T07:12:17.803Z,343.12
2023-05-21T07:13:17.814Z,455.62
2023-05-21T07:14:17.797Z,506.25
2023-05-21T07:15:17.782Z,500.62
2023-05-21T07:16:17.861Z,500.62
2023-05-21T07:17:17.746Z,455.62
2023-05-21T07:18:17.722Z,343.12
2023-05-21T07:19:17.742Z,551.25
2023-05-21T07:20:17.738Z,506.25
2023-05-21T07:21:17.689Z,331.88
2023-05-21T07:22:17.677Z,455.62
2023-05-21T07:23:17.684Z,427.50
2023-05-21T07:24:17.659Z,483.75
2023-05-21T07:25:17.653Z,624.38
2023-05-21T07:26:17.639Z,601.88
2023-05-21T07:27:25.281Z,568.12
2023-05-21T07:28:18.614Z,663.75
2023-05-21T07:29:17.622Z,545.62
2023-05-21T07:30:17.661Z,568.12
2023-05-21T07:31:17.592Z,540.00
2023-05-21T07:32:17.568Z,545.62
2023-05-21T07:33:17.564Z,455.62
2023-05-21T07:34:17.548Z,405.00
2023-05-21T07:35:17.721Z,382.50
2023-05-21T07:36:17.524Z,371.25
2023-05-21T07:37:17.523Z,433.12
2023-05-21T07:38:17.514Z,410.62
2023-05-21T07:39:17.525Z,399.38
2023-05-21T07:40:17.798Z,388.12
2023-05-21T07:41:18.850Z,315.00
2023-05-21T07:42:17.473Z,337.50
2023-05-21T07:43:17.459Z,354.38
2023-05-21T07:44:17.454Z,331.88
2023-05-21T07:45:17.624Z,258.75
2023-05-21T07:46:17.439Z,253.12
2023-05-21T07:47:17.412Z,241.88
2023-05-21T07:48:17.402Z,253.12
2023-05-21T07:49:17.394Z,241.88
2023-05-21T07:50:17.760Z,230.62
2023-05-21T07:51:17.373Z,191.25
2023-05-21T07:52:17.364Z,168.75
2023-05-21T07:53:17.342Z,191.25
2023-05-21T07:54:17.328Z,191.25
2023-05-21T07:55:17.353Z,196.88
2023-05-21T07:56:17.305Z,180.00
2023-05-21T07:57:17.309Z,185.62
2023-05-21T07:58:17.297Z,168.75
2023-05-21T07:59:17.304Z,196.88
2023-05-21T08:00:17.274Z,213.75
2023-05-21T08:01:17.277Z,230.62
2023-05-21T08:02:17.237Z,264.38
2023-05-21T08:03:17.363Z,236.25
2023-05-21T08:04:17.462Z,258.75
2023-05-21T08:05:17.289Z,281.25
2023-05-21T08:06:17.192Z,337.50
2023-05-21T08:07:17.189Z,303.75
2023-05-21T08:08:17.172Z,286.88
2023-05-21T08:09:17.154Z,298.12
2023-05-21T08:10:19.209Z,292.50
2023-05-21T08:11:17.172Z,275.62
2023-05-21T08:12:17.141Z,258.75
2023-05-21T08:13:17.131Z,275.62
2023-05-21T08:14:17.118Z,281.25
2023-05-21T08:15:17.110Z,365.62
2023-05-21T08:16:17.120Z,421.88
2023-05-21T08:17:17.063Z,416.25
2023-05-21T08:18:17.079Z,337.50
2023-05-21T08:19:17.110Z,348.75
2023-05-21T08:20:17.054Z,427.50
2023-05-21T08:21:17.047Z,489.38
2023-05-21T08:22:17.028Z,433.12
2023-05-21T08:23:17.000Z,421.88
2023-05-21T08:24:17.018Z,444.38
2023-05-21T08:25:17.012Z,545.62
2023-05-21T08:26:16.969Z,579.38
2023-05-21T08:27:17.063Z,585.00
2023-05-21T08:28:16.965Z,573.75
2023-05-21T08:29:16.934Z,562.50
2023-05-21T08:30:16.957Z,686.25
2023-05-21T08:31:16.935Z,900.00
2023-05-21T08:32:16.959Z,922.50
2023-05-21T08:33:18.422Z,990.00
2023-05-21T08:34:16.897Z,888.75
2023-05-21T08:35:16.895Z,1057.50
2023-05-21T08:36:16.876Z,978.75
2023-05-21T08:37:16.874Z,1057.50
2023-05-21T08:38:16.855Z,1006.88
2023-05-21T08:39:16.853Z,1023.75
2023-05-21T08:40:16.854Z,1074.38
2023-05-21T08:41:16.813Z,843.75
2023-05-21T08:42:25.649Z,832.50
2023-05-21T08:43:17.842Z,697.50
2023-05-21T08:44:16.786Z,742.50
2023-05-21T08:45:16.780Z,798.75
2023-05-21T08:46:16.804Z,776.25
2023-05-21T08:47:16.745Z,646.88
2023-05-21T08:48:16.749Z,601.88
2023-05-21T08:49:16.739Z,731.25
2023-05-21T08:50:16.760Z,798.75
2023-05-21T08:51:16.710Z,883.12
2023-05-21T08:52:16.682Z,950.62
2023-05-21T08:53:27.368Z,731.25
2023-05-21T08:54:17.657Z,585.00
2023-05-21T08:55:16.669Z,534.38
2023-05-21T08:56:16.649Z,585.00
2023-05-21T08:57:16.632Z,551.25
2023-05-21T08:58:16.628Z,613.12
2023-05-21T08:59:16.649Z,731.25
2023-05-21T09:00:16.631Z,905.62
2023-05-21T09:01:16.633Z,1035.00
2023-05-21T09:02:16.574Z,821.25
2023-05-21T09:03:16.663Z,725.62
2023-05-21T09:04:21.452Z,624.38
2023-05-21T09:05:17.589Z,781.88
2023-05-21T09:06:16.559Z,1040.62
2023-05-21T09:07:16.533Z,1051.88
2023-05-21T09:08:16.511Z,1119.38
2023-05-21T09:09:16.505Z,1006.88
2023-05-21T09:10:16.514Z,1040.62
2023-05-21T09:11:16.511Z,978.75
2023-05-21T09:12:16.483Z,973.12
2023-05-21T09:13:16.476Z,843.75
2023-05-21T09:14:16.457Z,945.00
2023-05-21T09:15:16.484Z,849.38
2023-05-21T09:16:16.465Z,798.75
2023-05-21T09:17:16.440Z,916.88
2023-05-21T09:18:16.408Z,956.25
2023-05-21T09:19:16.439Z,900.00
2023-05-21T09:20:16.612Z,821.25
2023-05-21T09:21:16.376Z,973.12
2023-05-21T09:22:16.373Z,1063.12
2023-05-21T09:23:16.382Z,1153.12
2023-05-21T09:24:16.342Z,1321.88
2023-05-21T09:25:16.376Z,1417.50
2023-05-21T09:26:16.319Z,1462.50
2023-05-21T09:27:16.312Z,1445.62
2023-05-21T09:28:16.309Z,1361.25
2023-05-21T09:29:16.303Z,1344.38
2023-05-21T09:30:16.318Z,1400.62
2023-05-21T09:31:16.318Z,1333.12
2023-05-21T09:32:16.258Z,1305.00
2023-05-21T09:33:16.261Z,1378.12
2023-05-21T09:34:16.238Z,1451.25
2023-05-21T09:35:16.265Z,1535.62
2023-05-21T09:36:16.229Z,1507.50
2023-05-21T09:37:26.558Z,1546.88
2023-05-21T09:38:17.225Z,1569.38
2023-05-21T09:39:16.397Z,1563.75
2023-05-21T09:40:16.213Z,1591.88
2023-05-21T09:41:19.858Z,1327.50
2023-05-21T09:42:17.182Z,1299.38
2023-05-21T09:43:16.148Z,1366.88
2023-05-21T09:44:16.149Z,1310.62
2023-05-21T09:45:16.172Z,1299.38
2023-05-21T09:46:16.165Z,1175.62
2023-05-21T09:47:16.131Z,1119.38
2023-05-21T09:48:16.106Z,1023.75
2023-05-21T09:49:16.086Z,990.00
2023-05-21T09:50:16.084Z,1080.00
2023-05-21T09:51:16.321Z,1248.75
2023-05-21T09:52:16.055Z,1260.00
2023-05-21T09:53:16.049Z,1119.38
2023-05-21T09:54:16.052Z,1074.38
2023-05-21T09:55:16.060Z,1254.38
2023-05-21T09:56:16.032Z,1428.75
2023-05-21T09:57:16.021Z,1490.62
2023-05-21T09:58:16.012Z,1524.38
2023-05-21T09:59:16.000Z,1473.75
2023-05-21T10:00:16.054Z,1350.00
2023-05-21T10:01:16.026Z,1248.75
2023-05-21T10:02:16.137Z,871.88
2023-05-21T10:03:16.062Z,832.50
2023-05-21T10:04:16.008Z,900.00
2023-05-21T10:05:15.947Z,939.38
2023-05-21T10:06:15.908Z,1125.00
2023-05-21T10:07:15.903Z,900.00
2023-05-21T10:08:15.901Z,748.12
2023-05-21T10:09:15.881Z,787.50
2023-05-21T10:10:15.907Z,905.62
2023-05-21T10:11:15.869Z,1006.88
2023-05-21T10:12:15.891Z,1063.12
2023-05-21T10:13:15.857Z,1153.12
2023-05-21T10:14:15.828Z,1085.62
2023-05-21T10:15:15.846Z,1164.38
2023-05-21T10:16:15.891Z,1125.00
2023-05-21T10:17:15.819Z,1063.12
2023-05-21T10:18:15.801Z,1096.88
2023-05-21T10:19:15.866Z,1006.88
2023-05-21T10:20:15.787Z,866.25
2023-05-21T10:21:15.763Z,995.62
2023-05-21T10:22:15.760Z,922.50
2023-05-21T10:23:15.753Z,871.88
2023-05-21T10:24:15.728Z,961.88
2023-05-21T10:25:15.768Z,900.00
2023-05-21T10:26:15.706Z,815.62
2023-05-21T10:27:15.725Z,669.38
2023-05-21T10:28:15.702Z,461.25
2023-05-21T10:29:17.290Z,382.50
2023-05-21T10:30:15.694Z,348.75
2023-05-21T10:31:15.677Z,337.50
2023-05-21T10:32:15.742Z,326.25
2023-05-21T10:33:15.709Z,303.75
2023-05-21T10:34:15.636Z,315.00
2023-05-21T10:35:15.658Z,337.50
2023-05-21T10:36:15.623Z,354.38
2023-05-21T10:37:15.610Z,343.12
2023-05-21T10:38:15.603Z,337.50
2023-05-21T10:39:15.592Z,337.50
2023-05-21T10:40:15.576Z,343.12
2023-05-21T10:41:15.584Z,348.75
2023-05-21T10:42:15.542Z,343.12
2023-05-21T10:43:15.536Z,331.88
2023-05-21T10:44:15.543Z,320.62
2023-05-21T10:45:15.526Z,326.25
2023-05-21T10:46:15.673Z,348.75
2023-05-21T10:47:15.513Z,354.38
2023-05-21T10:48:15.531Z,365.62
2023-05-21T10:49:15.496Z,382.50
2023-05-21T10:50:15.578Z,382.50
2023-05-21T10:51:15.523Z,382.50
2023-05-21T10:52:15.464Z,365.62
2023-05-21T10:53:15.451Z,360.00
2023-05-21T10:54:15.433Z,337.50
2023-05-21T10:55:15.448Z,320.62
2023-05-21T10:56:15.423Z,281.25
2023-05-21T10:57:15.401Z,253.12
2023-05-21T10:58:15.389Z,230.62
2023-05-21T10:59:15.426Z,225.00
2023-05-21T11:00:15.355Z,213.75
2023-05-21T11:01:15.422Z,225.00
2023-05-21T11:02:15.454Z,236.25
2023-05-21T11:03:15.384Z,225.00
2023-05-21T11:04:15.329Z,213.75
2023-05-21T11:05:15.318Z,219.38
2023-05-21T11:06:15.316Z,225.00
2023-05-21T11:07:15.319Z,230.62
2023-05-21T11:08:15.291Z,230.62
2023-05-21T11:09:15.271Z,230.62
2023-05-21T11:10:15.285Z,225.00
2023-05-21T11:11:15.267Z,225.00
2023-05-21T11:12:15.253Z,213.75
2023-05-21T11:13:15.289Z,208.12
2023-05-21T11:14:15.218Z,202.50
2023-05-21T11:15:15.226Z,196.88
2023-05-21T11:16:15.205Z,191.25
2023-05-21T11:17:15.290Z,185.62
2023-05-21T11:18:15.174Z,185.62
2023-05-21T11:19:15.197Z,185.62
2023-05-21T11:20:15.192Z,185.62
2023-05-21T11:21:15.161Z,185.62
2023-05-21T11:22:15.133Z,185.62
2023-05-21T11:23:15.165Z,185.62
2023-05-21T11:24:15.127Z,185.62
2023-05-21T11:25:15.121Z,191.25
2023-05-21T11:26:15.092Z,191.25
2023-05-21T11:27:15.087Z,191.25
2023-05-21T11:28:15.072Z,185.62
2023-05-21T11:29:15.063Z,180.00
2023-05-21T11:30:15.109Z,180.00
2023-05-21T11:31:15.111Z,174.38
2023-05-21T11:32:15.095Z,174.38
2023-05-21T11:33:15.090Z,180.00
2023-05-21T11:34:15.010Z,180.00
2023-05-21T11:35:15.023Z,185.62
2023-05-21T11:36:15.017Z,191.25
2023-05-21T11:37:14.979Z,191.25
2023-05-21T11:38:14.974Z,196.88
2023-05-21T11:39:14.987Z,191.25
2023-05-21T11:40:14.957Z,202.50
2023-05-21T11:41:14.949Z,196.88
2023-05-21T11:42:14.955Z,202.50
2023-05-21T11:43:14.931Z,196.88
2023-05-21T11:44:14.925Z,191.25
2023-05-21T11:45:14.907Z,191.25
2023-05-21T11:46:15.016Z,191.25
2023-05-21T11:47:14.879Z,191.25
2023-05-21T11:48:14.895Z,191.25
2023-05-21T11:49:14.857Z,196.88
2023-05-21T11:50:14.848Z,185.62
2023-05-21T11:51:14.830Z,185.62
2023-05-21T11:52:14.821Z,185.62
2023-05-21T11:53:14.848Z,180.00
2023-05-21T11:54:14.797Z,174.38
2023-05-21T11:55:14.822Z,168.75
2023-05-21T11:56:14.793Z,157.50
2023-05-21T11:57:14.813Z,157.50
2023-05-21T11:58:14.785Z,157.50
2023-05-21T11:59:17.136Z,157.50
2023-05-21T12:00:14.769Z,151.88
2023-05-21T12:01:14.729Z,157.50
2023-05-21T12:02:14.750Z,157.50
2023-05-21T12:03:14.895Z,157.50
2023-05-21T12:04:14.689Z,163.12
2023-05-21T12:05:14.684Z,157.50
2023-05-21T12:06:14.693Z,151.88
2023-05-21T12:07:14.674Z,157.50
2023-05-21T12:08:14.663Z,157.50
2023-05-21T12:09:14.645Z,157.50
2023-05-21T12:10:14.632Z,157.50
2023-05-21T12:11:14.645Z,157.50
2023-05-21T12:12:14.612Z,151.88
2023-05-21T12:13:14.609Z,157.50
2023-05-21T12:14:14.645Z,157.50
2023-05-21T12:15:14.578Z,151.88
2023-05-21T12:16:14.640Z,151.88
2023-05-21T12:17:14.559Z,151.88
2023-05-21T12:18:14.582Z,151.88
2023-05-21T12:19:14.571Z,151.88
2023-05-21T12:20:14.535Z,146.25
2023-05-21T12:21:14.527Z,151.88
2023-05-21T12:22:14.531Z,151.88
2023-05-21T12:23:14.493Z,146.25
2023-05-21T12:24:14.478Z,146.25
2023-05-21T12:25:14.474Z,140.62
2023-05-21T12:26:14.464Z,140.62
2023-05-21T12:27:14.489Z,140.62
2023-05-21T12:28:14.451Z,140.62
2023-05-21T12:29:14.438Z,135.00
2023-05-21T12:30:14.428Z,135.00
2023-05-21T12:31:14.435Z,129.38
2023-05-21T12:32:14.488Z,135.00
2023-05-21T12:33:14.401Z,135.00
2023-05-21T12:34:14.379Z,135.00
2023-05-21T12:35:14.413Z,135.00
2023-05-21T12:36:14.402Z,129.38
2023-05-21T12:37:14.370Z,129.38
2023-05-21T12:38:14.347Z,129.38
2023-05-21T12:39:14.345Z,123.75
2023-05-21T12:40:14.326Z,118.12
2023-05-21T12:41:14.303Z,118.12
2023-05-21T12:42:14.294Z,123.75
2023-05-21T12:43:14.321Z,123.75
2023-05-21T12:44:14.268Z,118.12
2023-05-21T12:45:14.273Z,112.50
2023-05-21T12:46:14.302Z,118.12
2023-05-21T12:47:14.274Z,123.75